Latest Weather Observations for Moree

IDN60801

Issued at 5:02 am EST Monday 20 April 2015 (issued every 30 minutes, with the page automatically refreshed every 10 minutes)

About weather observations | Map of weather stations | Latest weather observations for NSW | Other Formats
Station Details ID: 053115 Name: MOREE AERO Lat: -29.49 Lon: 149.85 Height: 213.0 m
Data from the previous 72 hours. | See also: Recent months at Moree
Date/Time
EST
Temp
°C
App
Temp
°C
Dew
Point
Rel
Hum
%
Delta-T
°C
Wind Press
QNH
hPa
Press
MSL
hPa
Rain
since 9 am
mm
Dir
 
Spd
km/h
Gust
km/h
Spd
kts
Gust
kts
20/05:00am 10.6 6.6 8.2 85 1.2 WSW 19 22 10 12 1021.5 1020.8 0.0
20/04:30am 11.2 7.1 8.6 84 1.3 SW 20 26 11 14 1021.1 1020.5 0.0
20/04:00am 11.4 7.3 8.8 84 1.3 SW 20 26 11 14 1020.9 1020.3 0.0
20/03:30am 11.8 8.0 9.2 84 1.3 SW 19 24 10 13 1020.9 1020.3 0.0
20/03:00am 12.2 8.4 9.8 85 1.2 SW 20 28 11 15 1020.9 1020.3 0.0
20/02:30am 12.7 9.2 10.2 85 1.3 SW 19 26 10 14 1021.2 1020.6 0.0
20/02:00am 13.3 9.3 10.5 83 1.5 SW 22 28 12 15 1021.5 1020.8 0.0
20/01:30am 13.7 9.4 10.7 82 1.6 SW 24 30 13 16 1021.6 1020.9 0.0
20/01:00am 13.9 9.7 11.1 83 1.5 SW 24 32 13 17 1021.6 1020.9 0.0
20/12:30am 14.1 9.6 11.3 83 1.5 SW 26 32 14 17 1021.7 1021.0 0.0
20/12:00am 14.3 9.8 11.3 82 1.6 SW 26 32 14 17 1021.8 1021.1 0.0
 
Date/Time
EST
Temp
°C
App
Temp
°C
Dew
Point
Rel
Hum
%
Delta-T
°C
Wind Press
QNH
hPa
Press
MSL
hPa
Rain
since 9 am
mm
Dir
 
Spd
km/h
Gust
km/h
Spd
kts
Gust
kts
19/11:00pm 15.1 12.0 12.2 83 1.6 SW 20 30 11 16 1022.1 1021.4 0.0
19/10:30pm 15.5 12.6 12.4 82 1.7 SW 19 26 10 14 1022.3 1021.6 0.0
19/10:00pm 16.1 11.8 12.1 77 2.2 SW 26 32 14 17 1022.3 1021.6 0.0
19/09:30pm 16.7 13.7 12.7 77 2.2 SW 20 28 11 15 1022.4 1021.7 0.0
19/09:00pm 17.3 13.6 12.6 74 2.6 SW 24 28 13 15 1022.1 1021.4 0.0
19/08:30pm 17.7 14.1 13.2 75 2.6 SSW 24 30 13 16 1021.7 1021.0 0.0
19/08:00pm 17.9 15.4 14.2 79 2.1 SW 20 28 11 15 1021.6 1020.9 0.0
19/07:30pm 18.0 16.7 14.7 81 1.9 SW 15 19 8 10 1021.2 1020.6 0.0
19/07:00pm 18.0 17.2 15.1 83 1.7 SW 13 17 7 9 1020.6 1020.0 0.0
19/06:30pm 18.4 17.3 15.3 82 1.8 SW 15 19 8 10 1020.2 1019.6 0.0
19/06:00pm 18.9 16.9 15.4 80 2.1 SW 20 28 11 15 1020.1 1019.5 0.0
19/05:30pm 19.9 17.5 15.5 76 2.6 SW 22 32 12 17 1019.8 1019.2 0.0
19/05:00pm 19.9 18.4 16.2 79 2.2 SW 19 26 10 14 1019.5 1018.8 0.0
19/04:30pm 20.5 19.3 16.1 76 2.7 SW 17 26 9 14 1019.4 1018.7 0.0
19/04:00pm 20.9 19.0 15.2 70 3.4 SW 19 26 10 14 1019.4 1018.7 0.0
19/03:30pm 20.7 19.0 14.8 69 3.5 SW 17 20 9 11 1019.3 1018.6 0.0
19/03:00pm 20.8 18.8 15.4 71 3.2 SW 20 26 11 14 1019.3 1018.6 0.0
19/02:30pm 21.0 19.2 16.0 73 3.0 SW 20 28 11 15 1019.2 1018.5 0.0
19/02:00pm 20.5 18.3 15.9 75 2.8 SW 22 28 12 15 1019.3 1018.6 0.0
19/01:30pm 20.8 19.3 16.4 76 2.7 SW 19 24 10 13 1019.2 1018.5 0.0
19/01:00pm 20.7 19.3 16.5 77 2.6 SW 19 24 10 13 1019.3 1018.6 0.0
19/12:30pm 20.7 19.1 15.9 74 2.9 SW 19 22 10 12 1019.7 1019.0 0.0
19/12:00pm 21.0 19.4 16.0 73 3.0 SW 19 24 10 13 1019.9 1019.3 0.0
19/11:30am 20.8 19.9 16.8 78 2.5 SW 17 20 9 11 1020.3 1019.7 0.0
19/11:00am 20.2 20.0 16.6 80 2.2 SW 13 17 7 9 1020.4 1019.8 0.0
19/10:30am 19.9 19.5 16.2 79 2.2 WSW 13 19 7 10 1020.6 1020.0 0.0
19/09:30am 19.2 19.0 16.6 85 1.6 SW 13 17 7 9 1020.7 1020.1 0.0
19/09:00am 19.0 18.5 17.0 88 1.2 WSW 15 17 8 9 1020.6 1020.0 9.0
19/08:30am 18.6 18.6 17.1 91 0.9 W 13 15 7 8 1020.5 1019.9 9.0
19/08:00am 18.5 19.3 17.3 93 0.7 W 9 11 5 6 1020.3 1019.7 9.0
19/07:30am 18.4 19.8 17.4 94 0.6 WNW 6 9 3 5 1019.6 1018.9 9.0
19/07:00am 18.4 21.0 17.4 94 0.6 CALM 0 0 0 0 1019.2 1018.5 9.0
19/06:30am 18.2 20.7 17.2 94 0.6 CALM 0 0 0 0 1018.7 1018.0 9.0
19/06:00am 18.3 20.7 17.1 93 0.7 CALM 0 0 0 0 1018.3 1017.6 9.0
19/05:30am 18.2 20.6 17.0 93 0.7 CALM 0 0 0 0 1018.1 1017.4 8.8
19/05:12am 18.2 20.6 17.0 93 0.7 CALM 0 0 0 0 1018.2 1017.5 8.6
19/05:00am 18.2 20.6 17.0 93 0.7 CALM 0 0 0 0 1018.2 1017.5 8.2
19/04:58am 18.2 20.6 17.0 93 0.7 CALM 0 0 0 0 1018.2 1017.5 8.2
19/04:30am 18.2 20.6 17.0 93 0.7 CALM 0 0 0 0 1018.0 1017.3 7.4
19/04:00am 18.1 20.5 16.9 93 0.7 CALM 0 0 0 0 1017.9 1017.2 6.6
19/03:30am 18.1 19.1 16.9 93 0.7 SE 7 7 4 4 1017.8 1017.1 6.4
19/03:20am 18.1 18.7 16.9 93 0.7 SSE 9 11 5 6 1017.9 1017.2 6.4
19/03:04am 18.2 19.0 17.2 94 0.6 S 9 11 5 6 1017.6 1016.9 6.2
19/03:00am 18.2 19.0 17.2 94 0.6 S 9 11 5 6 1017.8 1017.1 6.2
19/02:30am 18.1 18.4 17.1 94 0.6 ESE 11 13 6 7 1017.6 1016.9 6.0
19/02:00am 18.2 19.0 17.2 94 0.6 S 9 11 5 6 1018.3 1017.6 5.8
19/01:37am 18.2 18.6 17.2 94 0.6 S 11 15 6 8 1018.4 1017.7 5.6
19/01:30am 18.3 19.1 17.3 94 0.6 S 9 13 5 7 1018.4 1017.7 5.4
19/01:24am 18.2 18.9 17.0 93 0.7 SSE 9 15 5 8 1018.4 1017.7 5.2
19/01:00am 18.4 17.6 17.2 93 0.7 SSW 17 19 9 10 1018.5 1017.8 4.4
19/12:41am 18.5 17.4 17.2 92 0.8 SSW 19 22 10 12 1018.9 1018.2 4.0
19/12:30am 18.7 17.0 17.2 91 0.9 SW 22 32 12 17 1019.0 1018.3 3.6
19/12:29am 18.7 16.6 17.2 91 0.9 SW 24 32 13 17 1019.1 1018.4 3.6
19/12:07am 19.1 18.5 17.6 91 0.9 SW 17 24 9 13 1019.2 1018.5 3.4
19/12:00am 19.2 18.2 17.5 90 1.0 SW 19 24 10 13 1019.1 1018.4 3.4
 
Date/Time
EST
Temp
°C
App
Temp
°C
Dew
Point
Rel
Hum
%
Delta-T
°C
Wind Press
QNH
hPa
Press
MSL
hPa
Rain
since 9 am
mm
Dir
 
Spd
km/h
Gust
km/h
Spd
kts
Gust
kts
18/11:51pm 19.2 18.2 17.5 90 1.0 SW 19 26 10 14 1019.3 1018.6 3.4
18/11:30pm 19.3 18.8 17.8 91 0.9 SW 17 20 9 11 1019.2 1018.5 2.6
18/11:07pm 19.3 18.1 17.6 90 1.0 SW 20 28 11 15 1018.8 1018.1 2.4
18/11:00pm 19.4 17.1 17.5 89 1.2 SW 26 32 14 17 1018.8 1018.1 2.2
18/10:42pm 20.8 19.8 17.6 82 2.0 WSW 19 32 10 17 1018.4 1017.7 1.0
18/10:30pm 21.2 21.4 17.6 80 2.2 NNE 13 30 7 16 1018.3 1017.6 0.2
18/10:00pm 20.8 23.5 17.8 83 1.9 CALM 0 0 0 0 1017.9 1017.2 0.2
18/09:30pm 20.6 23.2 17.6 83 1.9 CALM 0 0 0 0 1017.9 1017.2 0.2
18/09:00pm 20.6 23.2 18.4 87 1.4 NE 2 6 1 3 1017.9 1017.2 0.2
18/08:30pm 20.5 21.7 17.3 82 2.0 NE 7 7 4 4 1017.8 1017.1 0.2
18/08:00pm 21.0 21.6 17.8 82 2.0 NE 11 13 6 7 1017.7 1017.0 0.0
18/07:30pm 21.2 23.3 18.0 82 2.0 NNW 4 7 2 4 1017.5 1016.8 0.0
18/07:00pm 21.6 19.8 17.8 79 2.4 WNW 24 35 13 19 1017.5 1016.8 0.0
18/06:49pm 23.8 24.7 16.6 64 4.4 NW 7 50 4 27 1017.3 1016.6 0.0
18/06:30pm 24.9 26.1 15.0 54 6.0 NNW 2 9 1 5 1016.8 1016.1 0.0
18/06:00pm 25.5 25.3 14.6 51 6.6 N 9 13 5 7 1016.7 1016.0 0.0
18/05:30pm 26.2 25.5 14.3 48 7.2 N 11 15 6 8 1016.7 1016.0 0.0
18/05:00pm 26.7 25.5 14.1 46 7.6 N 13 20 7 11 1016.7 1016.0 0.0
18/04:30pm 27.0 25.1 14.1 45 7.8 N 17 24 9 13 1016.7 1016.0 0.0
18/04:00pm 27.2 25.2 13.9 44 8.0 N 17 26 9 14 1016.9 1016.2 0.0
18/03:30pm 27.3 24.3 13.6 43 8.2 N 22 32 12 17 1016.9 1016.2 0.0
18/03:00pm 27.3 25.0 14.0 44 8.0 N 19 28 10 15 1017.3 1016.6 0.0
18/02:30pm 27.1 24.0 14.5 46 7.6 N 24 32 13 17 1017.2 1016.5 0.0
18/02:00pm 26.9 24.0 14.0 45 7.7 N 22 28 12 15 1017.5 1016.8 0.0
18/01:30pm 26.6 23.2 14.7 48 7.2 N 26 35 14 19 1018.1 1017.4 0.0
18/01:00pm 26.4 23.4 14.8 49 7.0 N 24 35 13 19 1018.5 1017.8 0.0
18/12:30pm 26.5 23.6 15.2 49 6.9 N 24 33 13 18 1019.2 1018.5 0.0
18/12:00pm 25.9 22.2 15.0 51 6.6 N 28 41 15 22 1019.7 1019.0 0.0
18/11:30am 25.3 21.3 15.3 54 6.1 N 30 39 16 21 1020.4 1019.8 0.0
18/11:00am 25.4 22.2 15.4 54 6.1 NNE 26 33 14 18 1020.8 1020.2 0.0
18/10:30am 24.5 20.7 15.7 58 5.4 NNE 30 37 16 20 1021.1 1020.5 0.0
18/10:00am 24.0 19.7 15.5 59 5.2 N 32 39 17 21 1021.3 1020.7 0.0
18/09:30am 23.1 18.6 15.4 62 4.7 NNE 33 43 18 23 1021.7 1021.0 0.0
18/09:00am 22.5 18.3 15.8 66 4.1 NNE 32 41 17 22 1022.0 1021.3 0.0
18/08:30am 21.4 16.9 15.3 68 3.7 NNE 33 43 18 23 1022.0 1021.3 0.0
18/08:00am 20.8 17.1 15.1 70 3.4 NE 28 37 15 20 1022.0 1021.3 0.0
18/07:30am 19.6 16.1 14.6 73 2.9 NNE 26 32 14 17 1021.6 1020.9 0.0
18/07:00am 18.6 15.7 14.1 75 2.6 NE 22 32 12 17 1021.2 1020.6 0.0
18/06:30am 18.2 14.9 14.1 77 2.4 NE 24 30 13 16 1021.0 1020.4 0.0
18/06:00am 18.5 15.7 14.2 76 2.5 NE 22 30 12 16 1020.5 1019.9 0.0
18/05:30am 18.6 15.3 14.1 75 2.6 NE 24 32 13 17 1020.5 1019.9 0.0
18/05:00am 18.7 15.3 13.8 73 2.8 NE 24 30 13 16 1020.3 1019.7 0.0
18/04:30am 18.9 15.9 13.7 72 3.0 NNE 22 32 12 17 1020.3 1019.7 0.0
18/04:00am 19.2 15.0 13.6 70 3.2 NE 28 33 15 18 1019.9 1019.3 0.0
18/03:30am 19.6 15.8 13.5 68 3.5 NNE 26 32 14 17 1019.9 1019.3 0.0
18/03:00am 20.1 16.7 13.8 67 3.7 NNE 24 32 13 17 1020.0 1019.4 0.0
18/02:30am 20.4 15.8 13.6 65 3.9 NE 30 41 16 22 1019.9 1019.3 0.0
18/02:00am 20.7 16.6 13.9 65 4.0 NNE 28 37 15 20 1020.1 1019.5 0.0
18/01:30am 20.7 16.5 13.4 63 4.2 NE 28 37 15 20 1020.3 1019.7 0.0
18/01:00am 21.0 17.4 13.2 61 4.5 NE 24 30 13 16 1020.5 1019.9 0.0
18/12:30am 21.1 17.8 12.8 59 4.8 NE 22 30 12 16 1020.7 1020.1 0.0
18/12:00am 21.0 18.1 12.4 58 4.9 NE 19 22 10 12 1021.3 1020.7 0.0
 
Date/Time
EST
Temp
°C
App
Temp
°C
Dew
Point
Rel
Hum
%
Delta-T
°C
Wind Press
QNH
hPa
Press
MSL
hPa
Rain
since 9 am
mm
Dir
 
Spd
km/h
Gust
km/h
Spd
kts
Gust
kts
17/11:30pm 21.5 19.0 12.4 56 5.2 NE 17 22 9 12 1021.5 1020.8 0.0
17/11:00pm 21.7 18.7 12.0 54 5.5 NE 19 26 10 14 1021.2 1020.6 0.0
17/10:30pm 22.3 19.3 12.0 52 5.9 NE 19 26 10 14 1021.1 1020.5 0.0
17/10:00pm 22.5 19.4 11.6 50 6.1 NE 19 26 10 14 1020.9 1020.3 0.0
17/09:30pm 22.4 19.6 11.2 49 6.3 NE 17 19 9 10 1020.5 1019.9 0.0
17/09:00pm 22.6 19.7 11.0 48 6.5 NE 17 19 9 10 1020.2 1019.6 0.0
17/08:30pm 22.2 20.1 11.3 50 6.1 NE 13 17 7 9 1019.9 1019.3 0.0
17/08:00pm 21.3 19.4 10.5 50 5.9 NE 11 13 6 7 1019.6 1018.9 0.0
17/07:30pm 23.6 22.2 11.0 45 7.1 NE 9 11 5 6 1019.5 1018.8 0.0
17/07:00pm 24.4 23.3 10.7 42 7.7 NNE 7 9 4 5 1019.3 1018.6 0.0
17/06:30pm 25.2 23.5 9.9 38 8.5 N 9 11 5 6 1019.1 1018.4 0.0
17/06:00pm 26.6 24.5 9.9 35 9.3 NNE 11 13 6 7 1018.8 1018.1 0.0
17/05:30pm 26.9 26.0 12.5 40 8.4 NE 9 9 5 5 1018.4 1017.7 0.0
17/05:00pm 27.5 26.0 11.9 38 9.1 E 11 17 6 9 1018.3 1017.6 0.0
17/04:30pm 29.1 26.9 10.7 32 10.6 NE 13 20 7 11 1018.3 1017.6 0.0
17/04:00pm 28.8 25.9 10.9 33 10.3 ENE 17 24 9 13 1018.3 1017.6 0.0
17/03:30pm 29.2 26.8 11.3 33 10.4 ENE 15 26 8 14 1018.6 1017.9 0.0
17/03:00pm 29.1 26.5 12.1 35 10.0 ENE 17 26 9 14 1018.8 1018.1 0.0
17/02:30pm 28.7 26.2 12.2 36 9.7 ENE 17 26 9 14 1019.2 1018.5 0.0
17/02:00pm 28.1 25.7 12.8 38 9.0 ENE 17 22 9 12 1019.4 1018.7 0.0
17/01:30pm 27.9 27.0 13.8 42 8.5 N 11 17 6 9 1020.0 1019.4 0.0
17/01:00pm 27.4 26.1 13.7 43 8.2 NNE 13 26 7 14 1020.7 1020.1 0.0
17/12:30pm 27.2 26.4 13.9 44 8.0 NE 11 19 6 10 1021.5 1020.8 0.0
17/12:00pm 26.7 25.7 14.5 47 7.4 N 13 22 7 12 1022.2 1021.5 0.0
17/11:30am 26.0 25.0 14.5 49 6.9 N 13 22 7 12 1022.9 1022.2 0.0
17/11:00am 25.5 23.2 14.0 49 6.8 NNE 19 28 10 15 1023.5 1022.8 0.0
17/10:30am 24.9 22.8 14.7 53 6.1 N 19 30 10 16 1023.8 1023.2 0.0
17/10:00am 24.6 21.9 15.5 57 5.5 NNE 24 32 13 17 1024.2 1023.6 0.0
17/09:30am 23.3 19.9 14.8 59 5.1 N 26 33 14 18 1024.6 1024.0 0.0
17/09:00am 22.3 18.5 14.7 62 4.5 NNE 28 35 15 19 1024.8 1024.2 0.0
17/08:30am 21.6 17.7 14.5 64 4.2 NNE 28 35 15 19 1024.8 1024.2 0.0
17/08:00am 20.5 17.0 14.6 69 3.5 NNE 26 32 14 17 1024.6 1024.0 0.0
17/07:30am 19.4 16.9 14.2 72 3.0 NNE 20 30 11 16 1024.4 1023.8 0.0
17/07:00am 18.7 16.5 14.4 76 2.5 NNE 19 26 10 14 1024.3 1023.7 0.0
17/06:30am 18.1 16.6 14.2 78 2.3 NE 15 19 8 10 1023.8 1023.2 0.0
17/06:00am 18.0 16.0 13.9 77 2.4 NE 17 19 9 10 1023.3 1022.6 0.0
17/05:30am 18.1 16.1 13.8 76 2.5 NE 17 19 9 10 1022.9 1022.2 0.0

Other Formats:

Comma delimited format used in spreadsheet applications
http://www.bom.gov.au/fwo/IDN60801/IDN60801.95527.axf

JavaScript Object Notation format (JSON) in row-major order
http://www.bom.gov.au/fwo/IDN60801/IDN60801.95527.json